Aviation Digital Data Service (ADDS)

Output produced by METARs form (0748 UTC 28 September 2022)
found at http://www.aviationweather.gov/metar/data/
 
VTSB 280700Z 24009KT 9999 -RA SCT020 30/24 Q1005 NOSIG
VTSB 280600Z 24009KT 9999 SCT020 30/25 Q1006 NOSIG
VTSB 280500Z 24010KT 9999 -RA SCT020 30/25 Q1006 NOSIG
VTSB 280400Z 23005KT 180V270 9999 FEW020 30/26 Q1007 NOSIG
VTSB 280300Z 21009KT 9999 -RA SCT020 27/25 Q1008 NOSIG
VTSB 280200Z 17004KT 140V220 9999 SCT020 27/24 Q1008 NOSIG
VTSB 280100Z VRB01KT 9999 FEW020 25/25 Q1007 NOSIG
VTSB 280000Z 00000KT 9999 FEW020 24/24 Q1006 NOSIG
VTSB 272300Z 17003KT 140V200 9999 FEW020 24/24 Q1006 NOSIG
VTSB 272200Z 20002KT 8000 FEW020 24/24 Q1006 NOSIG
VTSB 271500Z 00000KT 9999 FEW020 25/23 Q1010 NOSIG
VTSB 271400Z 00000KT 9999 FEW020 26/23 Q1009 NOSIG
VTSB 271300Z 28004KT 240V300 9999 SCT020 26/23 Q1008 NOSIG
VTSB 271200Z 22006KT 9999 SCT020 27/23 Q1007 NOSIG
VTSB 271100Z 21005KT 170V230 9999 SCT020 27/24 Q1007 NOSIG
VTSB 271000Z 22008KT 9999 SCT020 27/24 Q1006 NOSIG
VTSB 270900Z 22006KT 140V240 9999 SCT020 28/24 Q1006 NOSIG
VTSB 270800Z 21007KT 110V240 9999 VCSH FEW018CB SCT020 29/25 Q1006 NOSIG
VTSB 270700Z VRB09KT 9999 VCSH FEW018CB SCT020 31/23 Q1007 NOSIG
TAF VTSB 280500Z 2806/2906 24008KT 9999 SCT020 SCT100 
     TEMPO 2806/2816 24015G25KT 4000 TSRA FEW016CB SCT018 BKN100 
     BECMG 2816/2818 00000KT 
     TEMPO 2820/2906 24015G25KT 4000 RA